createdAt,value
2019-02-06T00:04:48.429Z,98066.84
2019-02-06T00:09:53.066Z,98069.36
2019-02-06T00:14:58.002Z,98066.57
2019-02-06T00:20:02.568Z,98072.23
2019-02-06T00:25:07.494Z,98069.80
2019-02-06T00:30:15.160Z,98070.88
2019-02-06T00:35:25.720Z,98070.00
2019-02-06T00:40:26.336Z,98077.28
2019-02-06T00:45:31.177Z,98072.24
2019-02-06T00:50:36.229Z,98059.13
2019-02-06T00:55:40.863Z,98049.06
2019-02-06T01:00:45.611Z,98055.13
2019-02-06T01:05:50.165Z,98060.84
2019-02-06T01:10:54.788Z,98062.08
2019-02-06T01:15:59.636Z,98044.44
2019-02-06T01:21:05.505Z,98055.23
2019-02-06T01:26:10.244Z,98052.30
2019-02-06T01:31:15.501Z,98047.39
2019-02-06T01:36:20.043Z,98043.70
2019-02-06T01:41:24.667Z,98040.93
2019-02-06T01:46:29.324Z,98050.92
2019-02-06T01:51:34.272Z,98041.10
2019-02-06T01:56:39.014Z,98041.86
2019-02-06T02:01:43.864Z,98041.67
2019-02-06T02:06:48.497Z,98031.44
2019-02-06T02:11:53.131Z,98017.24
2019-02-06T02:16:57.886Z,97997.05
2019-02-06T02:22:02.623Z,98010.10
2019-02-06T02:27:08.390Z,97993.84
2019-02-06T02:32:13.341Z,97995.93
2019-02-06T02:37:19.114Z,97991.07
2019-02-06T02:42:23.849Z,97986.53
2019-02-06T02:47:28.485Z,97976.94
2019-02-06T02:52:33.247Z,97988.68
2019-02-06T02:57:38.075Z,97986.41
2019-02-06T03:02:44.221Z,97987.30
2019-02-06T03:07:48.883Z,97988.29
2019-02-06T03:12:53.540Z,97992.53
2019-02-06T03:17:58.473Z,97984.19
2019-02-06T03:23:03.122Z,97978.84
2019-02-06T03:28:07.870Z,97963.94
2019-02-06T03:33:12.513Z,97975.41
2019-02-06T03:38:17.247Z,97964.58
2019-02-06T03:43:21.992Z,97957.28
2019-02-06T03:48:26.526Z,97951.69
2019-02-06T03:53:31.271Z,97957.06
2019-02-06T03:58:36.121Z,97972.45
2019-02-06T04:03:40.759Z,97972.61
2019-02-06T04:08:45.497Z,97990.55
2019-02-06T04:13:50.140Z,97977.00
2019-02-06T04:18:55.906Z,97977.12
2019-02-06T04:24:00.540Z,97980.03
2019-02-06T04:29:05.178Z,97966.87
2019-02-06T04:34:09.929Z,97965.52
2019-02-06T04:39:14.676Z,97968.32
2019-02-06T04:44:19.625Z,97965.37
2019-02-06T04:49:24.568Z,97975.93
2019-02-06T04:54:30.849Z,97965.36
2019-02-06T04:59:35.495Z,97982.40
2019-02-06T05:04:40.535Z,97988.19
2019-02-06T05:09:45.795Z,97984.55
2019-02-06T05:14:50.541Z,97985.41
2019-02-06T05:19:55.779Z,97973.28
2019-02-06T05:25:00.752Z,97979.16
2019-02-06T05:30:08.038Z,97997.52
2019-02-06T05:35:12.790Z,98004.81
2019-02-06T05:40:17.528Z,98009.38
2019-02-06T05:45:24.006Z,98001.00
2019-02-06T05:50:28.645Z,98022.05
2019-02-06T05:55:33.503Z,98019.22
2019-02-06T06:00:39.877Z,98026.16
2019-02-06T06:05:44.635Z,98019.29
2019-02-06T06:10:49.391Z,98026.87
2019-02-06T06:15:54.209Z,98032.60
2019-02-06T06:20:59.688Z,98037.75
2019-02-06T06:26:04.627Z,98030.92
2019-02-06T06:31:09.379Z,98032.47
2019-02-06T06:36:14.101Z,98027.68
2019-02-06T06:41:18.847Z,98026.08
2019-02-06T06:46:23.590Z,98025.00
2019-02-06T06:51:28.527Z,98025.69
2019-02-06T06:56:33.175Z,98033.84
2019-02-06T07:01:38.018Z,98031.26
2019-02-06T07:06:42.865Z,98034.86
2019-02-06T07:11:49.246Z,98033.98
2019-02-06T07:16:54.030Z,98033.88
2019-02-06T07:21:58.737Z,98035.20
2019-02-06T07:27:03.576Z,98032.72
2019-02-06T07:32:08.237Z,98030.94
2019-02-06T07:37:12.962Z,98030.28
2019-02-06T07:42:17.705Z,98030.98
2019-02-06T07:47:22.444Z,98035.85
2019-02-06T07:52:27.292Z,98040.23
2019-02-06T07:57:32.036Z,98043.19
2019-02-06T08:02:38.621Z,98041.80
2019-02-06T08:07:43.354Z,98039.48
2019-02-06T08:12:48.518Z,98041.78
2019-02-06T08:17:53.155Z,98047.59
2019-02-06T08:22:57.898Z,98050.32
2019-02-06T08:28:02.641Z,98054.03
2019-02-06T08:33:07.384Z,98061.20
2019-02-06T08:38:12.124Z,98059.28
2019-02-06T08:43:16.766Z,98057.41
2019-02-06T08:48:21.502Z,98060.71
2019-02-06T08:53:26.147Z,98068.01
2019-02-06T08:58:30.781Z,98073.77
2019-02-06T09:03:35.391Z,98083.55
2019-02-06T09:08:40.173Z,98078.84
2019-02-06T09:13:46.421Z,98074.78
2019-02-06T09:18:50.980Z,98089.88
2019-02-06T09:23:55.724Z,98089.08
2019-02-06T09:29:00.683Z,98087.33
2019-02-06T09:34:05.541Z,98089.83
2019-02-06T09:39:11.914Z,98088.58
2019-02-06T09:44:17.686Z,98087.61
2019-02-06T09:49:22.724Z,98084.21
2019-02-06T09:54:27.772Z,98081.07
2019-02-06T09:59:32.422Z,98080.61
2019-02-06T10:04:37.157Z,98081.66
2019-02-06T10:09:41.799Z,98082.05
2019-02-06T10:14:46.538Z,98084.38
2019-02-06T10:19:51.181Z,98082.23
2019-02-06T10:24:55.925Z,98076.77
2019-02-06T10:30:03.632Z,98076.82
2019-02-06T10:35:08.483Z,98089.36
2019-02-06T10:40:13.532Z,98073.63
2019-02-06T10:45:21.080Z,98076.78
2019-02-06T10:50:29.264Z,98084.43
2019-02-06T10:55:34.621Z,98092.61
2019-02-06T11:00:42.063Z,98085.45
2019-02-06T11:05:46.975Z,98082.19
2019-02-06T11:10:52.227Z,98065.83
2019-02-06T11:15:57.940Z,98071.03
2019-02-06T11:21:02.953Z,98066.94
2019-02-06T11:26:07.614Z,98073.02
2019-02-06T11:31:12.550Z,98073.75
2019-02-06T11:36:24.206Z,98072.03
2019-02-06T11:41:27.852Z,98077.11
2019-02-06T11:46:32.702Z,98074.10
2019-02-06T11:51:37.644Z,98062.88
2019-02-06T11:56:42.508Z,98053.31
2019-02-06T12:01:49.857Z,98061.20
2019-02-06T12:06:54.644Z,98058.00
2019-02-06T12:11:59.482Z,98055.63
2019-02-06T12:17:04.341Z,98061.19
2019-02-06T12:22:09.178Z,98059.43
2019-02-06T12:27:15.864Z,98061.49
2019-02-06T12:32:20.597Z,98062.63
2019-02-06T12:37:25.351Z,98071.83
2019-02-06T12:42:30.089Z,98070.14
2019-02-06T12:47:34.725Z,98070.12
2019-02-06T12:52:39.558Z,98073.31
2019-02-06T12:57:44.238Z,98076.04
2019-02-06T13:02:50.608Z,98070.94
2019-02-06T13:07:55.349Z,98069.16
2019-02-06T13:13:00.188Z,98075.06
2019-02-06T13:18:05.249Z,98068.52
2019-02-06T13:23:09.981Z,98069.16
2019-02-06T13:28:14.631Z,98067.73
2019-02-06T13:33:19.387Z,98064.70
2019-02-06T13:38:24.141Z,98073.16
2019-02-06T13:43:29.256Z,98070.39
2019-02-06T13:48:36.061Z,98067.09
2019-02-06T13:53:42.492Z,98068.19
2019-02-06T13:58:47.086Z,98066.86
2019-02-06T14:03:52.019Z,98062.67
2019-02-06T14:08:56.768Z,98066.13
2019-02-06T14:14:01.610Z,98064.43
2019-02-06T14:19:06.759Z,98060.47
2019-02-06T14:24:23.601Z,98066.09
2019-02-06T14:29:40.518Z,98057.86
2019-02-06T14:34:50.855Z,98060.36
2019-02-06T14:40:01.575Z,98052.76
2019-02-06T14:45:15.430Z,98047.89
2019-02-06T14:50:38.297Z,98055.20
2019-02-06T14:55:46.124Z,98053.03
2019-02-06T15:01:00.488Z,98048.52
2019-02-06T15:06:19.251Z,98051.67
2019-02-06T15:11:42.021Z,98049.81
2019-02-06T15:17:06.418Z,98062.06
2019-02-06T15:22:14.563Z,98055.88
2019-02-06T15:27:41.924Z,98055.81
2019-02-06T15:33:07.857Z,98052.73
2019-02-06T15:38:18.638Z,98062.95
2019-02-06T15:43:50.722Z,98063.55
2019-02-06T15:49:07.755Z,98070.41
2019-02-06T15:54:26.024Z,98074.43
2019-02-06T15:59:46.011Z,98089.91
2019-02-06T16:05:24.036Z,98094.53
2019-02-06T16:10:34.820Z,98101.52
2019-02-06T16:15:48.378Z,98099.48
2019-02-06T16:21:17.207Z,98119.44
2019-02-06T16:26:41.906Z,98125.44
2019-02-06T16:31:59.207Z,98127.12
2019-02-06T16:37:09.805Z,98138.25
2019-02-06T16:42:35.839Z,98144.53
2019-02-06T16:48:01.795Z,98144.66
2019-02-06T16:53:15.229Z,98153.17
2019-02-06T16:58:38.513Z,98151.48
2019-02-06T17:04:00.766Z,98161.92
2019-02-06T17:09:35.787Z,98158.88
2019-02-06T17:15:03.294Z,98162.23
2019-02-06T17:20:29.339Z,98169.08
2019-02-06T17:25:58.147Z,98172.61
2019-02-06T17:31:35.140Z,98172.45
2019-02-06T17:36:43.677Z,98174.78
2019-02-06T17:42:15.873Z,98182.34
2019-02-06T17:47:26.140Z,98182.92
2019-02-06T17:52:52.096Z,98184.61
2019-02-06T17:57:56.801Z,98192.25
2019-02-06T18:03:04.935Z,98191.11
2019-02-06T18:08:09.674Z,98194.36
2019-02-06T18:13:14.522Z,98199.41
2019-02-06T18:18:19.338Z,98201.37
2019-02-06T18:23:24.402Z,98205.95
2019-02-06T18:28:29.659Z,98210.00
2019-02-06T18:33:34.806Z,98220.86
2019-02-06T18:38:46.927Z,98224.09
2019-02-06T18:43:47.956Z,98232.59
2019-02-06T18:48:53.149Z,98228.69
2019-02-06T18:53:58.401Z,98238.30
2019-02-06T18:59:03.351Z,98236.02
2019-02-06T19:04:08.113Z,98231.78
2019-02-06T19:09:14.271Z,98232.23
2019-02-06T19:14:19.006Z,98233.09
2019-02-06T19:19:25.416Z,98235.55
2019-02-06T19:24:31.267Z,98240.54
2019-02-06T19:29:35.999Z,98239.98
2019-02-06T19:34:40.746Z,98250.88
2019-02-06T19:39:45.586Z,98251.70
2019-02-06T19:44:51.662Z,98252.67
2019-02-06T19:49:56.301Z,98262.49
2019-02-06T19:55:01.049Z,98264.51
2019-02-06T20:00:11.832Z,98265.58
2019-02-06T20:05:20.464Z,98270.98
2019-02-06T20:10:34.120Z,98272.08
2019-02-06T20:15:40.601Z,98281.14
2019-02-06T20:20:45.751Z,98280.73
2019-02-06T20:25:51.316Z,98283.59
2019-02-06T20:30:57.031Z,98285.86
2019-02-06T20:36:02.534Z,98282.33
2019-02-06T20:41:08.217Z,98289.44
2019-02-06T20:46:16.303Z,98286.02
2019-02-06T20:51:23.037Z,98287.88
2019-02-06T20:56:28.263Z,98279.89
2019-02-06T21:01:33.420Z,98277.05
2019-02-06T21:06:38.576Z,98278.52
2019-02-06T21:11:43.854Z,98273.91
2019-02-06T21:16:50.639Z,98270.50
2019-02-06T21:21:55.752Z,98276.05
2019-02-06T21:27:00.409Z,98280.31
2019-02-06T21:32:05.262Z,98284.58
2019-02-06T21:37:10.511Z,98281.11
2019-02-06T21:42:15.460Z,98279.27
2019-02-06T21:47:20.346Z,98295.02
2019-02-06T21:52:25.041Z,98297.25
2019-02-06T21:57:29.791Z,98293.58
2019-02-06T22:02:34.528Z,98292.30
2019-02-06T22:07:39.275Z,98302.70
2019-02-06T22:12:44.223Z,98307.23
2019-02-06T22:17:48.960Z,98315.16
2019-02-06T22:22:53.709Z,98307.16
2019-02-06T22:27:58.340Z,98309.45
2019-02-06T22:33:03.218Z,98309.39
2019-02-06T22:38:09.203Z,98306.38
2019-02-06T22:43:15.034Z,98314.84
2019-02-06T22:48:21.528Z,98308.92
2019-02-06T22:53:27.153Z,98307.77
2019-02-06T22:58:31.836Z,98300.90
2019-02-06T23:03:37.996Z,98296.98
2019-02-06T23:08:42.739Z,98301.28
2019-02-06T23:13:47.585Z,98300.08
2019-02-06T23:18:52.531Z,98301.71
2019-02-06T23:23:58.500Z,98296.11
2019-02-06T23:29:03.248Z,98310.47
2019-02-06T23:34:07.983Z,98307.61
2019-02-06T23:39:14.682Z,98301.05
2019-02-06T23:44:28.503Z,98301.82
2019-02-06T23:49:26.620Z,98298.84
2019-02-06T23:54:31.254Z,98309.72
2019-02-06T23:59:35.797Z,98307.42
